Airfield :
LOGIN :

Register | Disclaimer

   EN    FR    IT 

 










Legend :    VFR   Marginal VFR   IFR   Intensive IFR   Very Intensive IFR
Visi :
Ceiling :
>= 8 km
>= 3000ft
5 to 8 km
1000 to 3000 ft
1500m to 5 km
500 to 1000 ft
800 to 1500m
200 to 500 ft
< 800m
< 200 ft
Symbols :   Thunderstorms  Fog  Heavy snow  Heavy precipitations  Wind > 20 kt
SIGMETs :     Misc.  Thunderstorms  Icing  Turbulence  Mountain Waves  Volcanic Ashes






- Airport Elevation : 147 ft
- IATA code : DUS


EDDL - Düsseldorf Int.

CURRENT METAR :
  • 290650Z AUTO 28004KT 240V310 9999 SCT013 BKN036 OVC048 09/07 Q1016 TEMPO BKN010

EXPIRED METARs :
  • 290620Z AUTO 28004KT 240V310 9999 -SHRA SCT029 OVC036 FEW///CB 09/07 Q1016 RESHRA NOSIG
  • 290550Z AUTO 26004KT 9999 SHRA FEW021 BKN036 OVC043 FEW///CB 09/07 Q1016 BECMG NSW
  • 290520Z AUTO 24004KT 9999 -SHRA FEW026 BKN042 FEW///CB 08/07 Q1016 BECMG 31005KT
  • 290450Z AUTO 23004KT 210V270 9999 SCT024 BKN041 08/06 Q1016 BECMG 29005KT

TAF TAF EDDL
Valid from the 29 at 06:00 until the 30 at 12:00 UTC


290500Z 2906/3012 25005KT 9999 BKN030
BECMG 2906/2909 32007KT
PROB30
TEMPO 2906/2909 4000 SHRA BKN012TCU
TEMPO 2909/2918 SHRA BKN020CB
PROB30
TEMPO 2913/2917 32015G25KT 4000 TSRA
BECMG 2920/2923 VRB03KT
BECMG 3007/3010 35005KT



MET'MAP, your aeronautical weather chart ! - Copyright ORBIFLY December 2007 - Disclaimer

ORBIFLY MET'MAP TEAM :

Programming & Development : Alexandra Zaïnal
Original concept : Baudouin d'Aumeries
Technical & hardware support : Manuel Goepfert
Assistance : Marc-Olivier Méhu

Contact : metmap@orbifly.com




SOURCES & CREDITS :

   NOAA